Time;durP1;ratioP1;P1;durP2;ratioP2;P2;SDS_P1;SDS_P2;PMS_P1;PMS_P2;Temp;Humidity;BMP_temperature;BMP_pressure;BME280_temperature;BME280_humidity;BME280_pressure;Samples;Min_cycle;Max_cycle;Signal;HPM_P1;HPM_P2
2023/03/24 01:27:49;;;;;;;4.37;2.60;;;;;;;;;;5031824;28;20348;-44
2023/03/24 01:30:17;;;;;;;5.87;2.07;;;;;;;;;;5024515;28;20213;-42
2023/03/24 01:32:44;;;;;;;3.53;2.10;;;;;;;;;;5025616;28;20246;-41
2023/03/24 01:35:11;;;;;;;2.70;2.37;;;;;;;;;;5028254;28;20216;-41
2023/03/24 01:37:39;;;;;;;2.40;2.10;;;;;;;;;;5027816;28;20204;-45
2023/03/24 01:40:08;;;;;;;2.53;2.27;;;;;;;;;;5030554;28;20209;-37
2023/03/24 01:42:36;;;;;;;3.13;2.40;;;;;;;;;;5030678;28;20222;-43
2023/03/24 01:45:18;;;;;;;4.47;2.10;;;;;;;;;;5033033;28;20198;-42
2023/03/24 01:47:46;;;;;;;4.83;2.10;;;;;;;;;;5025047;28;20607;-42
2023/03/24 01:50:13;;;;;;;2.30;2.10;;;;;;;;;;5022606;28;20204;-45
2023/03/24 01:52:41;;;;;;;2.10;1.80;;;;;;;;;;5032096;28;20244;-40
2023/03/24 01:55:12;;;;;;;1.80;1.70;;;;;;;;;;5027601;28;20207;-39
2023/03/24 01:57:42;;;;;;;7.50;2.27;;;;;;;;;;5025108;28;20222;-40
2023/03/24 02:00:10;;;;;;;2.20;2.00;;;;;;;;;;5025892;28;20199;-40
2023/03/24 02:02:39;;;;;;;2.00;1.80;;;;;;;;;;5024198;28;20224;-43
2023/03/24 02:05:09;;;;;;;3.27;2.10;;;;;;;;;;5027819;28;20203;-41
2023/03/24 02:07:38;;;;;;;2.23;2.03;;;;;;;;;;5026211;28;20215;-42
2023/03/24 02:10:08;;;;;;;3.43;2.23;;;;;;;;;;5019771;28;20207;-38
2023/03/24 02:12:35;;;;;;;2.07;1.70;;;;;;;;;;5037183;28;20327;-39
2023/03/24 02:15:03;;;;;;;2.50;2.00;;;;;;;;;;5028513;28;20223;-43
2023/03/24 02:17:48;;;;;;;2.03;1.90;;;;;;;;;;5029218;28;20209;-42
2023/03/24 02:20:39;;;;;;;3.60;2.10;;;;;;;;;;5020128;28;20210;-38
2023/03/24 02:23:24;;;;;;;2.10;2.00;;;;;;;;;;5027180;28;20222;-46
2023/03/24 02:26:07;;;;;;;2.90;1.87;;;;;;;;;;5033042;28;20216;-41
2023/03/24 02:28:39;;;;;;;2.57;1.87;;;;;;;;;;5052085;28;20232;-41
2023/03/24 02:31:11;;;;;;;1.90;1.80;;;;;;;;;;5037267;28;20208;-41
2023/03/24 02:33:56;;;;;;;2.57;2.10;;;;;;;;;;5043337;28;20233;-42
2023/03/24 02:36:38;;;;;;;1.97;1.80;;;;;;;;;;5040798;28;20667;-41
2023/03/24 02:39:31;;;;;;;3.50;1.80;;;;;;;;;;5045879;28;20206;-40
2023/03/24 02:42:06;;;;;;;2.20;2.00;;;;;;;;;;5052211;28;20204;-42
2023/03/24 02:44:40;;;;;;;3.77;2.30;;;;;;;;;;5048856;28;20671;-45
2023/03/24 02:47:10;;;;;;;3.03;1.87;;;;;;;;;;5045919;28;20560;-41
2023/03/24 02:49:42;;;;;;;2.53;2.33;;;;;;;;;;5046436;28;20202;-40
2023/03/24 02:52:14;;;;;;;2.23;1.90;;;;;;;;;;5045739;28;20233;-36
2023/03/24 02:54:45;;;;;;;2.20;1.87;;;;;;;;;;5045574;28;20217;-41
2023/03/24 02:57:16;;;;;;;3.80;2.00;;;;;;;;;;5048477;28;20308;-41
2023/03/24 02:59:45;;;;;;;2.27;2.17;;;;;;;;;;5043294;28;21161;-38
2023/03/24 03:02:15;;;;;;;2.30;2.10;;;;;;;;;;5044597;28;20220;-40
2023/03/24 03:04:48;;;;;;;2.10;2.00;;;;;;;;;;5043531;28;20201;-40
2023/03/24 03:07:20;;;;;;;6.30;2.10;;;;;;;;;;5044072;28;20234;-37
2023/03/24 03:09:52;;;;;;;2.53;1.90;;;;;;;;;;5043550;28;20224;-41
2023/03/24 03:12:20;;;;;;;2.57;2.37;;;;;;;;;;5043483;28;20194;-37
2023/03/24 03:14:49;;;;;;;2.47;1.80;;;;;;;;;;5044010;28;20199;-40
2023/03/24 03:17:18;;;;;;;2.00;1.90;;;;;;;;;;5035837;28;20207;-43
2023/03/24 03:19:49;;;;;;;2.20;2.00;;;;;;;;;;5051328;28;20204;-39
2023/03/24 03:22:18;;;;;;;3.27;2.07;;;;;;;;;;5037604;28;20546;-44
2023/03/24 03:24:49;;;;;;;2.03;1.90;;;;;;;;;;5034067;28;20198;-36
2023/03/24 03:27:20;;;;;;;2.20;2.00;;;;;;;;;;5039692;28;20233;-41
2023/03/24 03:29:53;;;;;;;2.40;2.20;;;;;;;;;;5030080;28;20293;-45
2023/03/24 03:32:23;;;;;;;2.63;1.83;;;;;;;;;;5043703;28;20194;-43
2023/03/24 03:34:53;;;;;;;2.77;2.17;;;;;;;;;;5050736;28;20268;-39
2023/03/24 03:37:22;;;;;;;3.23;2.40;;;;;;;;;;5050221;28;20229;-41
2023/03/24 03:39:50;;;;;;;2.30;2.10;;;;;;;;;;5046701;28;20202;-35
2023/03/24 03:42:19;;;;;;;2.33;1.67;;;;;;;;;;5047410;28;20233;-39
2023/03/24 03:44:46;;;;;;;2.43;1.73;;;;;;;;;;5040837;28;20202;-39
2023/03/24 03:47:15;;;;;;;3.67;2.03;;;;;;;;;;5041690;28;20206;-39
2023/03/24 03:49:42;;;;;;;3.50;2.00;;;;;;;;;;5030886;28;20206;-43
2023/03/24 03:52:09;;;;;;;2.63;2.03;;;;;;;;;;5044976;28;20205;-39
2023/03/24 03:54:38;;;;;;;1.80;1.70;;;;;;;;;;5047882;28;20236;-40
2023/03/24 03:57:05;;;;;;;3.37;2.00;;;;;;;;;;5041883;28;20209;-37
2023/03/24 03:59:35;;;;;;;4.67;1.87;;;;;;;;;;5044318;28;20210;-43
2023/03/24 04:02:08;;;;;;;4.90;2.37;;;;;;;;;;5047330;28;20198;-43
2023/03/24 04:04:55;;;;;;;2.30;2.10;;;;;;;;;;5041989;28;20206;-36
2023/03/24 04:07:24;;;;;;;2.17;1.90;;;;;;;;;;5029274;28;20217;-39
2023/03/24 04:09:55;;;;;;;3.03;1.70;;;;;;;;;;5029800;28;20206;-43
2023/03/24 04:12:41;;;;;;;2.97;1.80;;;;;;;;;;5038051;28;20202;-41
2023/03/24 04:15:18;;;;;;;2.43;2.20;;;;;;;;;;5043377;28;20211;-38
2023/03/24 04:17:55;;;;;;;2.23;1.97;;;;;;;;;;5046286;28;20210;-39
2023/03/24 04:20:25;;;;;;;2.00;1.80;;;;;;;;;;5038192;28;20205;-40
2023/03/24 04:22:59;;;;;;;2.00;1.90;;;;;;;;;;5030758;28;20313;-41
2023/03/24 04:25:30;;;;;;;4.20;1.87;;;;;;;;;;5033625;28;20228;-44
2023/03/24 04:27:59;;;;;;;3.77;2.20;;;;;;;;;;5036651;28;20199;-45
2023/03/24 04:30:32;;;;;;;2.57;2.00;;;;;;;;;;5031466;28;20203;-42
2023/03/24 04:33:00;;;;;;;2.83;2.13;;;;;;;;;;5037226;28;20229;-44
2023/03/24 04:35:31;;;;;;;2.53;2.00;;;;;;;;;;5045550;28;20202;-40
2023/03/24 04:38:01;;;;;;;2.03;1.90;;;;;;;;;;5047226;28;20202;-40
2023/03/24 04:40:31;;;;;;;1.90;1.80;;;;;;;;;;5039107;28;20572;-39
2023/03/24 04:43:00;;;;;;;1.83;1.73;;;;;;;;;;5036089;28;20218;-39
2023/03/24 04:45:32;;;;;;;2.37;2.17;;;;;;;;;;5036712;28;20222;-42
2023/03/24 04:48:01;;;;;;;2.27;2.00;;;;;;;;;;5042765;28;20230;-40
2023/03/24 04:50:30;;;;;;;1.93;1.70;;;;;;;;;;5039245;28;20281;-42
2023/03/24 04:52:57;;;;;;;3.27;2.17;;;;;;;;;;5042850;28;20629;-42
2023/03/24 04:55:36;;;;;;;2.13;1.93;;;;;;;;;;5036942;28;20707;-37
2023/03/24 04:58:03;;;;;;;3.00;1.87;;;;;;;;;;5043797;28;20210;-34
2023/03/24 05:00:32;;;;;;;3.27;2.13;;;;;;;;;;5034033;28;20210;-44
2023/03/24 05:02:59;;;;;;;5.13;2.00;;;;;;;;;;5037780;28;20221;-39
2023/03/24 05:05:27;;;;;;;2.83;2.23;;;;;;;;;;5041305;28;20206;-44
2023/03/24 05:07:55;;;;;;;2.03;1.90;;;;;;;;;;5044069;28;20229;-39
2023/03/24 05:10:23;;;;;;;2.00;1.80;;;;;;;;;;5035781;28;20282;-38
2023/03/24 05:12:50;;;;;;;2.83;2.60;;;;;;;;;;5028997;28;20219;-39
2023/03/24 05:15:17;;;;;;;5.20;2.63;;;;;;;;;;5031014;28;20246;-42
2023/03/24 05:17:46;;;;;;;2.13;1.93;;;;;;;;;;5035871;28;20205;-37
2023/03/24 05:20:14;;;;;;;3.00;2.23;;;;;;;;;;5042984;28;20214;-38
2023/03/24 05:22:41;;;;;;;2.43;2.23;;;;;;;;;;5049013;28;20229;-36
2023/03/24 05:25:08;;;;;;;3.57;2.53;;;;;;;;;;5040196;28;20204;-42
2023/03/24 05:27:35;;;;;;;2.80;2.60;;;;;;;;;;5032486;28;20211;-37
2023/03/24 05:30:03;;;;;;;1.93;1.80;;;;;;;;;;5040459;28;20202;-39
2023/03/24 05:32:30;;;;;;;2.30;2.10;;;;;;;;;;5029132;28;20226;-41
2023/03/24 05:34:58;;;;;;;2.40;2.20;;;;;;;;;;5039651;28;20223;-41
2023/03/24 05:37:26;;;;;;;2.77;1.80;;;;;;;;;;5028932;28;20203;-41
2023/03/24 05:39:54;;;;;;;2.70;1.97;;;;;;;;;;5032314;28;20302;-37
2023/03/24 05:42:21;;;;;;;2.63;1.90;;;;;;;;;;5045207;28;20208;-40
2023/03/24 05:44:48;;;;;;;2.03;1.60;;;;;;;;;;5040221;28;20207;-41
2023/03/24 05:47:18;;;;;;;1.63;1.53;;;;;;;;;;5040327;28;20203;-43
2023/03/24 05:49:46;;;;;;;2.37;2.00;;;;;;;;;;5043143;28;20230;-41
2023/03/24 05:52:15;;;;;;;3.30;1.80;;;;;;;;;;5043682;28;20205;-41
2023/03/24 05:54:42;;;;;;;3.33;1.90;;;;;;;;;;5038722;28;20288;-42
2023/03/24 05:57:12;;;;;;;2.23;1.80;;;;;;;;;;5043314;28;20198;-42
2023/03/24 05:59:40;;;;;;;2.70;1.53;;;;;;;;;;5042125;28;20221;-38
2023/03/24 06:02:07;;;;;;;3.07;1.83;;;;;;;;;;5043411;28;20202;-40
2023/03/24 06:04:34;;;;;;;3.20;1.90;;;;;;;;;;5046641;28;20199;-40
2023/03/24 06:07:01;;;;;;;4.20;1.90;;;;;;;;;;5054651;28;20544;-39
2023/03/24 06:09:31;;;;;;;1.80;1.63;;;;;;;;;;5045168;28;20202;-37
2023/03/24 06:11:59;;;;;;;7.17;5.40;;;;;;;;;;5050679;28;20203;-42
2023/03/24 06:14:29;;;;;;;4.30;3.60;;;;;;;;;;5041184;28;20227;-41
2023/03/24 06:16:58;;;;;;;11.17;7.20;;;;;;;;;;5042727;28;20210;-38
2023/03/24 06:19:26;;;;;;;5.17;3.70;;;;;;;;;;5043168;28;20202;-41
2023/03/24 06:21:53;;;;;;;2.90;2.70;;;;;;;;;;5042081;28;20209;-43
2023/03/24 06:24:20;;;;;;;1.70;1.60;;;;;;;;;;5045420;28;20226;-43
2023/03/24 06:26:49;;;;;;;2.47;2.27;;;;;;;;;;5051364;28;20679;-42
2023/03/24 06:29:17;;;;;;;3.03;2.40;;;;;;;;;;5049706;28;20664;-37
2023/03/24 06:31:44;;;;;;;3.87;1.97;;;;;;;;;;5041595;28;20203;-37
2023/03/24 06:34:11;;;;;;;1.77;1.67;;;;;;;;;;5039356;28;20254;-39
2023/03/24 06:36:39;;;;;;;2.20;2.00;;;;;;;;;;5054513;28;20206;-44
2023/03/24 06:39:06;;;;;;;3.50;1.73;;;;;;;;;;5050365;28;20206;-39
2023/03/24 06:41:33;;;;;;;2.27;2.00;;;;;;;;;;5043471;28;20301;-45
2023/03/24 06:44:02;;;;;;;1.80;1.70;;;;;;;;;;5042258;28;20217;-36
2023/03/24 06:46:29;;;;;;;2.03;1.83;;;;;;;;;;5044857;28;20202;-42
2023/03/24 06:48:56;;;;;;;4.13;2.00;;;;;;;;;;5042452;28;20209;-44
2023/03/24 06:51:23;;;;;;;3.10;2.10;;;;;;;;;;5040622;28;20194;-40
2023/03/24 06:53:53;;;;;;;1.80;1.57;;;;;;;;;;5045475;28;20242;-42
2023/03/24 06:56:20;;;;;;;4.40;1.70;;;;;;;;;;5034461;28;20192;-43
2023/03/24 06:58:47;;;;;;;2.17;1.80;;;;;;;;;;5048077;28;20300;-44
2023/03/24 07:01:16;;;;;;;1.97;1.77;;;;;;;;;;5041731;28;20211;-37
2023/03/24 07:03:43;;;;;;;3.43;1.70;;;;;;;;;;5041637;28;20309;-36
2023/03/24 07:06:10;;;;;;;2.57;1.70;;;;;;;;;;5043370;28;20198;-38
2023/03/24 07:08:39;;;;;;;2.13;1.93;;;;;;;;;;5046608;28;20202;-37
2023/03/24 07:11:08;;;;;;;3.00;1.80;;;;;;;;;;5050934;28;20293;-38
2023/03/24 07:13:35;;;;;;;2.77;2.23;;;;;;;;;;5040715;28;20234;-42
2023/03/24 07:16:02;;;;;;;1.80;1.70;;;;;;;;;;5038795;28;20542;-37
2023/03/24 07:18:31;;;;;;;3.20;2.27;;;;;;;;;;5043745;28;20688;-45
2023/03/24 07:20:58;;;;;;;2.00;1.83;;;;;;;;;;5033745;28;20207;-40
2023/03/24 07:23:26;;;;;;;2.63;1.97;;;;;;;;;;5043354;28;20221;-35
2023/03/24 07:25:53;;;;;;;3.67;1.90;;;;;;;;;;5041152;28;20214;-44
2023/03/24 07:28:34;;;;;;;2.37;2.17;;;;;;;;;;5041536;28;20202;-42
2023/03/24 07:31:09;;;;;;;4.03;2.70;;;;;;;;;;5044452;28;20218;-42
2023/03/24 07:33:38;;;;;;;3.93;2.50;;;;;;;;;;5038141;28;20230;-41
2023/03/24 07:36:06;;;;;;;2.70;2.13;;;;;;;;;;5042471;28;20214;-42
2023/03/24 07:38:33;;;;;;;2.83;2.43;;;;;;;;;;5042061;28;20202;-45
2023/03/24 07:41:01;;;;;;;2.53;2.33;;;;;;;;;;5043623;28;20214;-42
2023/03/24 07:43:28;;;;;;;2.23;2.00;;;;;;;;;;5040279;28;20301;-38
2023/03/24 07:45:55;;;;;;;3.93;2.27;;;;;;;;;;5043615;28;20202;-39
2023/03/24 07:48:22;;;;;;;3.17;2.30;;;;;;;;;;5038587;28;20641;-39
2023/03/24 07:50:52;;;;;;;2.40;2.13;;;;;;;;;;5043195;28;20622;-37
2023/03/24 07:53:20;;;;;;;2.93;2.50;;;;;;;;;;5040223;28;20226;-37
2023/03/24 07:55:47;;;;;;;2.40;2.20;;;;;;;;;;5046071;28;20356;-43
2023/03/24 07:58:15;;;;;;;5.80;2.60;;;;;;;;;;5045156;28;20249;-38
2023/03/24 08:00:42;;;;;;;4.27;2.10;;;;;;;;;;5038805;28;20304;-40
2023/03/24 08:03:12;;;;;;;1.90;1.80;;;;;;;;;;5042825;28;20229;-38
2023/03/24 08:05:40;;;;;;;3.53;2.13;;;;;;;;;;5035197;28;20261;-42
2023/03/24 08:08:09;;;;;;;2.00;1.90;;;;;;;;;;5038215;28;20212;-37
2023/03/24 08:10:41;;;;;;;3.60;2.50;;;;;;;;;;5037055;28;20671;-41
2023/03/24 08:13:08;;;;;;;2.93;2.17;;;;;;;;;;5036189;28;20245;-40
2023/03/24 08:15:36;;;;;;;2.67;2.27;;;;;;;;;;5045440;28;20228;-40
2023/03/24 08:18:04;;;;;;;2.60;2.40;;;;;;;;;;5049213;28;20204;-39
2023/03/24 08:20:31;;;;;;;3.30;2.07;;;;;;;;;;5041333;28;20198;-38
2023/03/24 08:22:59;;;;;;;3.87;2.23;;;;;;;;;;5048016;28;20232;-38
2023/03/24 08:25:28;;;;;;;2.83;2.60;;;;;;;;;;5043477;28;20199;-37
2023/03/24 08:27:55;;;;;;;2.43;2.23;;;;;;;;;;5032534;28;20228;-40
2023/03/24 08:30:23;;;;;;;2.30;2.10;;;;;;;;;;5034981;28;20211;-40
2023/03/24 08:32:51;;;;;;;2.87;2.00;;;;;;;;;;5038007;28;20218;-37
2023/03/24 08:35:20;;;;;;;2.20;2.10;;;;;;;;;;5042044;28;20704;-42
2023/03/24 08:37:48;;;;;;;3.13;2.83;;;;;;;;;;5036020;28;20293;-39
2023/03/24 08:40:18;;;;;;;2.30;2.10;;;;;;;;;;5032647;28;20214;-39
2023/03/24 08:42:48;;;;;;;3.03;2.73;;;;;;;;;;5031411;28;20600;-43
2023/03/24 08:45:15;;;;;;;2.70;2.50;;;;;;;;;;5034093;28;20345;-43
2023/03/24 08:47:42;;;;;;;4.87;2.40;;;;;;;;;;5042742;28;20202;-37
2023/03/24 08:50:10;;;;;;;2.60;2.40;;;;;;;;;;5040876;28;20206;-39
2023/03/24 08:52:37;;;;;;;2.20;2.10;;;;;;;;;;5033705;28;20301;-38
2023/03/24 08:55:04;;;;;;;2.70;2.50;;;;;;;;;;5051897;28;20228;-40
2023/03/24 08:57:32;;;;;;;2.10;2.00;;;;;;;;;;5052174;28;20312;-38
2023/03/24 09:00:00;;;;;;;3.60;2.40;;;;;;;;;;5033052;28;20211;-40
2023/03/24 09:02:27;;;;;;;2.40;2.20;;;;;;;;;;5035797;28;20219;-36
2023/03/24 09:04:54;;;;;;;2.63;2.07;;;;;;;;;;5031995;28;20293;-38
2023/03/24 09:07:22;;;;;;;2.50;2.30;;;;;;;;;;5032670;28;20204;-41
2023/03/24 09:09:50;;;;;;;3.10;2.13;;;;;;;;;;5032896;28;20206;-42
2023/03/24 09:12:17;;;;;;;2.63;2.43;;;;;;;;;;5033501;28;20204;-44
2023/03/24 09:14:48;;;;;;;2.63;2.43;;;;;;;;;;5047482;28;20230;-41
2023/03/24 09:17:17;;;;;;;2.80;1.73;;;;;;;;;;5038748;28;20205;-40
2023/03/24 09:19:46;;;;;;;4.17;2.50;;;;;;;;;;5053839;28;20228;-43
2023/03/24 09:22:13;;;;;;;14.53;4.07;;;;;;;;;;5048601;28;20199;-40
2023/03/24 09:24:40;;;;;;;3.97;2.80;;;;;;;;;;5035899;28;20206;-38
2023/03/24 09:27:07;;;;;;;6.40;2.83;;;;;;;;;;5048751;28;20211;-36
2023/03/24 09:29:34;;;;;;;3.97;2.50;;;;;;;;;;5042759;28;20209;-44
2023/03/24 09:32:02;;;;;;;4.77;2.30;;;;;;;;;;5047165;28;20257;-36
2023/03/24 09:34:31;;;;;;;2.73;2.03;;;;;;;;;;5037568;28;20630;-43
2023/03/24 09:36:58;;;;;;;2.40;1.90;;;;;;;;;;5038189;28;20610;-35
2023/03/24 09:39:43;;;;;;;2.43;1.77;;;;;;;;;;5044740;28;20680;-41
2023/03/24 09:42:15;;;;;;;2.30;2.10;;;;;;;;;;5041968;28;20297;-42
2023/03/24 09:44:44;;;;;;;2.13;1.70;;;;;;;;;;5042624;28;20208;-45
2023/03/24 09:47:16;;;;;;;2.80;1.77;;;;;;;;;;5039360;28;20208;-40
2023/03/24 09:49:44;;;;;;;2.43;1.87;;;;;;;;;;5053601;28;20206;-43
2023/03/24 09:52:13;;;;;;;1.90;1.70;;;;;;;;;;5053667;28;20217;-40
2023/03/24 09:54:42;;;;;;;1.47;1.37;;;;;;;;;;5045227;28;20221;-44
2023/03/24 09:57:15;;;;;;;2.00;1.60;;;;;;;;;;5046778;28;20293;-40
2023/03/24 09:59:42;;;;;;;1.80;1.60;;;;;;;;;;5039711;28;20210;-38
2023/03/24 10:02:11;;;;;;;2.07;1.40;;;;;;;;;;5034447;28;20209;-42
2023/03/24 10:04:39;;;;;;;2.07;1.50;;;;;;;;;;5043691;28;20287;-42
2023/03/24 10:07:10;;;;;;;1.53;1.43;;;;;;;;;;5035436;28;20698;-38
2023/03/24 10:09:37;;;;;;;1.30;1.30;;;;;;;;;;5045085;28;20202;-36
2023/03/24 10:12:15;;;;;;;1.40;1.30;;;;;;;;;;5048888;28;20201;-40
2023/03/24 10:14:48;;;;;;;0.90;0.90;;;;;;;;;;5035479;28;20220;-36
2023/03/24 10:17:21;;;;;;;1.33;1.10;;;;;;;;;;5041921;28;20229;-39
2023/03/24 10:19:52;;;;;;;0.90;0.90;;;;;;;;;;5042575;28;20197;-37
2023/03/24 10:22:24;;;;;;;0.73;0.73;;;;;;;;;;5034505;28;20549;-38
2023/03/24 10:24:54;;;;;;;1.10;0.80;;;;;;;;;;5044348;28;20209;-41
2023/03/24 10:27:26;;;;;;;1.00;0.77;;;;;;;;;;5053405;28;20210;-38
2023/03/24 10:29:55;;;;;;;1.20;1.10;;;;;;;;;;5047954;28;20629;-45
2023/03/24 10:32:24;;;;;;;1.37;1.00;;;;;;;;;;5047676;28;20636;-43
2023/03/24 10:34:54;;;;;;;0.90;0.90;;;;;;;;;;5048131;28;20236;-44
2023/03/24 10:37:22;;;;;;;0.93;0.93;;;;;;;;;;5055325;28;20217;-40
2023/03/24 10:39:50;;;;;;;0.70;0.70;;;;;;;;;;5046494;28;20737;-39
2023/03/24 10:42:20;;;;;;;0.90;0.90;;;;;;;;;;5046904;28;20198;-37
2023/03/24 10:44:48;;;;;;;0.93;0.90;;;;;;;;;;5041682;28;20292;-39
2023/03/24 10:47:19;;;;;;;1.80;0.90;;;;;;;;;;5044421;28;20207;-41
2023/03/24 10:50:04;;;;;;;0.80;0.80;;;;;;;;;;5052393;28;20636;-42
2023/03/24 10:52:39;;;;;;;0.77;0.77;;;;;;;;;;5054304;28;20363;-40
2023/03/24 10:55:06;;;;;;;1.60;0.90;;;;;;;;;;5037926;28;20225;-40
2023/03/24 10:57:35;;;;;;;0.90;0.90;;;;;;;;;;5051660;28;20573;-42
2023/03/24 11:00:09;;;;;;;0.93;0.93;;;;;;;;;;5032830;28;20202;-41
2023/03/24 11:02:37;;;;;;;0.87;0.87;;;;;;;;;;5041570;28;20273;-38
2023/03/24 11:05:15;;;;;;;1.43;0.80;;;;;;;;;;5033483;28;20209;-39
2023/03/24 11:07:45;;;;;;;0.67;0.67;;;;;;;;;;5033860;28;20201;-42
2023/03/24 11:10:15;;;;;;;0.67;0.67;;;;;;;;;;5043522;28;20210;-41
2023/03/24 11:12:43;;;;;;;1.00;1.00;;;;;;;;;;5031024;28;20264;-43
2023/03/24 11:15:16;;;;;;;1.10;1.00;;;;;;;;;;5030475;28;20202;-41
2023/03/24 11:17:43;;;;;;;2.10;0.90;;;;;;;;;;5033467;28;20292;-41
2023/03/24 11:20:17;;;;;;;1.77;0.80;;;;;;;;;;5048397;28;20212;-39
2023/03/24 11:22:49;;;;;;;0.70;0.70;;;;;;;;;;5053374;28;20240;-40
2023/03/24 11:25:16;;;;;;;0.77;0.77;;;;;;;;;;5045729;28;20201;-41
2023/03/24 11:27:44;;;;;;;1.63;0.80;;;;;;;;;;5041889;28;20912;-35
2023/03/24 11:30:14;;;;;;;2.17;0.90;;;;;;;;;;5048100;28;20235;-40
2023/03/24 11:32:46;;;;;;;1.10;0.73;;;;;;;;;;5038498;28;20234;-40
2023/03/24 11:35:17;;;;;;;1.03;0.70;;;;;;;;;;5031937;28;20245;-40
2023/03/24 11:37:47;;;;;;;0.70;0.70;;;;;;;;;;5034417;28;20202;-40
2023/03/24 11:40:21;;;;;;;0.70;0.70;;;;;;;;;;5033667;28;20203;-40
2023/03/24 11:42:49;;;;;;;0.50;0.50;;;;;;;;;;5032983;28;20222;-36
2023/03/24 11:45:27;;;;;;;0.53;0.53;;;;;;;;;;5039706;28;20201;-43
2023/03/24 11:47:56;;;;;;;0.60;0.60;;;;;;;;;;5030133;28;20204;-42
2023/03/24 11:50:25;;;;;;;0.70;0.70;;;;;;;;;;5042764;28;20562;-38
2023/03/24 11:52:54;;;;;;;0.57;0.50;;;;;;;;;;5031020;28;20218;-37
2023/03/24 11:55:27;;;;;;;1.70;0.63;;;;;;;;;;5036005;28;20241;-39
2023/03/24 11:57:57;;;;;;;0.50;0.50;;;;;;;;;;5043168;28;20197;-37
2023/03/24 12:00:27;;;;;;;0.30;0.30;;;;;;;;;;5038127;28;20210;-41
2023/03/24 12:03:12;;;;;;;0.83;0.50;;;;;;;;;;5038881;28;20229;-37
2023/03/24 12:05:41;;;;;;;0.60;0.60;;;;;;;;;;5049483;28;20651;-37
2023/03/24 12:08:16;;;;;;;0.50;0.50;;;;;;;;;;5047549;28;20202;-37
2023/03/24 12:10:49;;;;;;;0.53;0.30;;;;;;;;;;5042092;28;20281;-36
2023/03/24 12:13:17;;;;;;;0.77;0.40;;;;;;;;;;5033442;28;20245;-43
2023/03/24 12:15:54;;;;;;;0.50;0.50;;;;;;;;;;5028442;28;20527;-38
2023/03/24 12:18:29;;;;;;;0.43;0.43;;;;;;;;;;5032806;28;20208;-38
2023/03/24 12:21:01;;;;;;;0.50;0.50;;;;;;;;;;5030038;28;20187;-37
2023/03/24 12:23:34;;;;;;;0.50;0.50;;;;;;;;;;5028074;28;20242;-37
2023/03/24 12:26:10;;;;;;;0.53;0.53;;;;;;;;;;5036449;28;20216;-37
2023/03/24 12:28:51;;;;;;;0.60;0.60;;;;;;;;;;5038859;28;20645;-39
2023/03/24 12:31:40;;;;;;;1.70;0.80;;;;;;;;;;5036901;28;20209;-42
2023/03/24 12:34:15;;;;;;;0.50;0.50;;;;;;;;;;5036953;28;20218;-41
2023/03/24 12:36:46;;;;;;;1.33;0.40;;;;;;;;;;5051603;28;20779;-42
2023/03/24 12:39:16;;;;;;;0.30;0.30;;;;;;;;;;5043614;28;20297;-38
2023/03/24 12:42:03;;;;;;;1.10;0.30;;;;;;;;;;5040742;28;20216;-39
2023/03/24 12:44:39;;;;;;;0.40;0.40;;;;;;;;;;5045091;28;20437;-40
2023/03/24 12:47:11;;;;;;;0.53;0.30;;;;;;;;;;5039314;28;20483;-39
2023/03/24 12:49:43;;;;;;;0.80;0.80;;;;;;;;;;5038304;28;20245;-35
2023/03/24 12:52:20;;;;;;;0.23;0.23;;;;;;;;;;5038183;28;20226;-36
2023/03/24 12:54:52;;;;;;;0.37;0.37;;;;;;;;;;5031232;28;20244;-41
2023/03/24 12:57:24;;;;;;;0.50;0.50;;;;;;;;;;5037870;28;20229;-40
2023/03/24 12:59:53;;;;;;;0.53;0.53;;;;;;;;;;5039134;28;20196;-44
2023/03/24 13:02:25;;;;;;;0.57;0.57;;;;;;;;;;5049245;28;20663;-42
2023/03/24 13:04:55;;;;;;;0.40;0.40;;;;;;;;;;5040963;28;20199;-39
2023/03/24 13:07:27;;;;;;;0.60;0.50;;;;;;;;;;5049563;28;20201;-42
2023/03/24 13:09:58;;;;;;;0.40;0.40;;;;;;;;;;5048452;28;20208;-38
2023/03/24 13:12:38;;;;;;;0.30;0.30;;;;;;;;;;5053084;28;20224;-39
2023/03/24 13:15:07;;;;;;;0.37;0.33;;;;;;;;;;5044505;28;20627;-42
2023/03/24 13:17:46;;;;;;;0.30;0.30;;;;;;;;;;5046155;28;20225;-38
2023/03/24 13:20:15;;;;;;;0.30;0.30;;;;;;;;;;5053185;28;20210;-44
2023/03/24 13:22:42;;;;;;;0.40;0.40;;;;;;;;;;5050596;28;20287;-40
2023/03/24 13:25:18;;;;;;;0.40;0.40;;;;;;;;;;5043624;28;20209;-35
2023/03/24 13:27:48;;;;;;;0.40;0.40;;;;;;;;;;5049587;28;20286;-39
2023/03/24 13:30:26;;;;;;;0.93;0.30;;;;;;;;;;5046150;28;20198;-44
2023/03/24 13:36:00;;;;;;;0.73;0.57;;;;;;;;;;5071805;28;20848;-92
2023/03/24 13:38:32;;;;;;;0.40;0.40;;;;;;;;;;5055780;28;20215;-93
2023/03/24 13:40:59;;;;;;;0.80;0.50;;;;;;;;;;5052850;28;20263;-94
2023/03/24 13:43:30;;;;;;;0.50;0.50;;;;;;;;;;5061664;28;20225;-92
2023/03/24 13:45:59;;;;;;;1.13;0.27;;;;;;;;;;5050492;28;20202;-92
2023/03/24 13:48:30;;;;;;;0.40;0.40;;;;;;;;;;5040983;28;20212;-93
2023/03/24 13:51:00;;;;;;;0.30;0.30;;;;;;;;;;5039836;28;20194;-92
2023/03/24 13:53:32;;;;;;;1.60;0.40;;;;;;;;;;5033843;28;20233;-92
2023/03/24 13:56:00;;;;;;;0.67;0.63;;;;;;;;;;5052733;28;20206;-92
2023/03/24 13:58:45;;;;;;;0.30;0.30;;;;;;;;;;5049824;28;20250;-93
2023/03/24 14:01:17;;;;;;;0.43;0.33;;;;;;;;;;5043244;28;20203;-92
2023/03/24 14:03:45;;;;;;;0.40;0.40;;;;;;;;;;5032682;28;20233;-92
2023/03/24 14:06:16;;;;;;;0.23;0.23;;;;;;;;;;5032774;28;20202;-92
2023/03/24 14:08:54;;;;;;;0.30;0.30;;;;;;;;;;5034350;28;20211;-92
2023/03/24 14:11:41;;;;;;;1.73;0.50;;;;;;;;;;5052575;28;20220;-92
2023/03/24 14:14:17;;;;;;;0.43;0.43;;;;;;;;;;5052435;28;20229;-93
2023/03/24 14:16:50;;;;;;;0.80;0.37;;;;;;;;;;5049943;28;20224;-92
2023/03/24 14:19:25;;;;;;;0.30;0.30;;;;;;;;;;5032832;28;20274;-93
2023/03/24 14:22:07;;;;;;;0.30;0.30;;;;;;;;;;5032233;28;20243;-92
2023/03/24 14:24:35;;;;;;;0.30;0.30;;;;;;;;;;5040030;28;20223;-92
2023/03/24 14:27:22;;;;;;;0.33;0.33;;;;;;;;;;5051584;28;20194;-92
2023/03/24 14:29:52;;;;;;;0.40;0.40;;;;;;;;;;5052159;28;20306;-93
2023/03/24 14:32:22;;;;;;;0.40;0.40;;;;;;;;;;5051781;28;20232;-93
2023/03/24 14:34:53;;;;;;;0.40;0.40;;;;;;;;;;5052033;28;20220;-94
2023/03/24 14:37:21;;;;;;;0.43;0.40;;;;;;;;;;5051790;28;20630;-94
2023/03/24 14:39:49;;;;;;;0.30;0.30;;;;;;;;;;5052790;28;20218;-92
2023/03/24 14:42:54;;;;;;;0.40;0.40;;;;;;;;;;5035822;28;20292;-93
2023/03/24 14:45:40;;;;;;;0.40;0.40;;;;;;;;;;5031422;28;20574;-93
2023/03/24 14:48:17;;;;;;;0.50;0.50;;;;;;;;;;5031283;28;20395;-92
2023/03/24 14:50:44;;;;;;;0.67;0.40;;;;;;;;;;5031560;28;20199;-93
2023/03/24 14:53:18;;;;;;;0.37;0.37;;;;;;;;;;5031218;28;20312;-93
2023/03/24 14:55:46;;;;;;;0.73;0.40;;;;;;;;;;5031108;28;20964;-94
2023/03/24 14:58:19;;;;;;;0.27;0.27;;;;;;;;;;5030957;28;20912;-93
2023/03/24 15:00:50;;;;;;;0.30;0.30;;;;;;;;;;5050601;28;20647;-93
2023/03/24 15:03:19;;;;;;;0.40;0.40;;;;;;;;;;5049244;28;20226;-93
2023/03/24 15:05:46;;;;;;;1.67;1.57;;;;;;;;;;5050902;28;20259;-93
2023/03/24 15:08:17;;;;;;;3.33;2.60;;;;;;;;;;5051318;28;20222;-93
2023/03/24 15:10:47;;;;;;;1.00;0.40;;;;;;;;;;5050068;28;20579;-93
2023/03/24 15:13:28;;;;;;;0.30;0.30;;;;;;;;;;5050298;28;20713;-94
2023/03/24 15:15:57;;;;;;;0.60;0.60;;;;;;;;;;5050661;28;20576;-93
2023/03/24 15:18:24;;;;;;;0.50;0.50;;;;;;;;;;5042400;28;20278;-93
2023/03/24 15:20:52;;;;;;;0.40;0.40;;;;;;;;;;5031407;28;20418;-93
2023/03/24 15:23:20;;;;;;;0.33;0.33;;;;;;;;;;5030654;28;20636;-93
2023/03/24 15:25:47;;;;;;;0.30;0.30;;;;;;;;;;5031252;28;20215;-92
2023/03/24 15:28:20;;;;;;;0.30;0.30;;;;;;;;;;5031646;28;20199;-93
2023/03/24 15:30:47;;;;;;;0.43;0.43;;;;;;;;;;5031534;28;20211;-93
2023/03/24 15:33:16;;;;;;;0.43;0.43;;;;;;;;;;5030689;28;20234;-92
2023/03/24 15:35:43;;;;;;;0.40;0.40;;;;;;;;;;5031248;28;20212;-94
2023/03/24 15:38:20;;;;;;;0.50;0.50;;;;;;;;;;5030949;28;20696;-92
2023/03/24 15:40:53;;;;;;;0.50;0.50;;;;;;;;;;5031350;28;20203;-93
2023/03/24 15:43:21;;;;;;;0.47;0.47;;;;;;;;;;5030938;28;20321;-92
2023/03/24 15:45:51;;;;;;;0.60;0.50;;;;;;;;;;5030508;28;20203;-92
2023/03/24 15:48:21;;;;;;;0.60;0.60;;;;;;;;;;5031104;28;20207;-94
2023/03/24 15:50:59;;;;;;;0.37;0.37;;;;;;;;;;5042582;28;20202;-93
2023/03/24 15:53:29;;;;;;;0.93;0.60;;;;;;;;;;5050939;28;20269;-92
2023/03/24 15:56:03;;;;;;;0.87;0.87;;;;;;;;;;5050656;28;20213;-93
2023/03/24 15:58:31;;;;;;;0.43;0.43;;;;;;;;;;5039321;28;20232;-91
2023/03/24 16:01:01;;;;;;;0.53;0.53;;;;;;;;;;5050283;28;20209;-94
2023/03/24 16:03:31;;;;;;;0.50;0.50;;;;;;;;;;5050637;28;20569;-92
2023/03/24 16:05:58;;;;;;;0.50;0.50;;;;;;;;;;5050303;28;20596;-92
2023/03/24 16:08:27;;;;;;;0.83;0.60;;;;;;;;;;5040483;28;20194;-93
2023/03/24 16:10:58;;;;;;;1.80;0.70;;;;;;;;;;5030605;28;20229;-95
2023/03/24 16:13:25;;;;;;;0.97;0.60;;;;;;;;;;5030915;28;20227;-93
2023/03/24 16:15:56;;;;;;;0.57;0.57;;;;;;;;;;5030507;28;20208;-93
2023/03/24 16:18:30;;;;;;;0.70;0.70;;;;;;;;;;5030135;28;20912;-93
2023/03/24 16:20:59;;;;;;;0.80;0.80;;;;;;;;;;5030056;28;20260;-94
2023/03/24 16:23:26;;;;;;;0.73;0.50;;;;;;;;;;5031630;28;20241;-94
2023/03/24 16:25:54;;;;;;;2.60;1.10;;;;;;;;;;5031955;28;20207;-94
2023/03/24 16:28:23;;;;;;;1.23;1.20;;;;;;;;;;5031650;28;20211;-94
2023/03/24 16:30:56;;;;;;;0.83;0.77;;;;;;;;;;5031533;28;20207;-95
2023/03/24 16:33:23;;;;;;;2.07;0.67;;;;;;;;;;5031809;28;20261;-94